sensor_id;sensor_type;location;lat;lon;timestamp;pressure;altitude;pressure_sealevel;temperature;humidity
62708;BME280;48769;51.624;5.886;2024-01-06T00:01:17;100098.09;;;7.25;100.00
62708;BME280;48769;51.624;5.886;2024-01-06T00:03:43;100098.09;;;7.25;100.00
62708;BME280;48769;51.624;5.886;2024-01-06T00:06:11;100108.47;;;7.29;100.00
62708;BME280;48769;51.624;5.886;2024-01-06T00:08:37;100105.84;;;7.29;100.00
62708;BME280;48769;51.624;5.886;2024-01-06T00:11:02;100111.00;;;7.30;100.00
62708;BME280;48769;51.624;5.886;2024-01-06T00:13:28;100107.38;;;7.33;100.00
62708;BME280;48769;51.624;5.886;2024-01-06T00:15:54;100112.78;;;7.30;100.00
62708;BME280;48769;51.624;5.886;2024-01-06T00:18:20;100118.03;;;7.30;100.00
62708;BME280;48769;51.624;5.886;2024-01-06T00:20:45;100117.94;;;7.31;100.00
62708;BME280;48769;51.624;5.886;2024-01-06T00:23:10;100120.66;;;7.30;100.00
62708;BME280;48769;51.624;5.886;2024-01-06T00:25:36;100121.50;;;7.30;100.00
62708;BME280;48769;51.624;5.886;2024-01-06T00:28:01;100126.84;;;7.29;100.00
62708;BME280;48769;51.624;5.886;2024-01-06T00:30:26;100128.53;;;7.30;100.00
62708;BME280;48769;51.624;5.886;2024-01-06T00:32:52;100124.97;;;7.31;100.00
62708;BME280;48769;51.624;5.886;2024-01-06T00:35:17;100124.22;;;7.29;100.00
62708;BME280;48769;51.624;5.886;2024-01-06T00:37:42;100133.00;;;7.28;100.00
62708;BME280;48769;51.624;5.886;2024-01-06T00:40:08;100132.41;;;7.22;100.00
62708;BME280;48769;51.624;5.886;2024-01-06T00:42:33;100141.97;;;7.23;100.00
62708;BME280;48769;51.624;5.886;2024-01-06T00:44:59;100140.28;;;7.22;100.00
62708;BME280;48769;51.624;5.886;2024-01-06T00:47:24;100135.88;;;7.23;100.00
62708;BME280;48769;51.624;5.886;2024-01-06T00:49:50;100135.03;;;7.22;100.00
62708;BME280;48769;51.624;5.886;2024-01-06T00:52:15;100133.34;;;7.21;100.00
62708;BME280;48769;51.624;5.886;2024-01-06T00:54:40;100142.81;;;7.24;100.00
62708;BME280;48769;51.624;5.886;2024-01-06T00:57:06;100143.06;;;7.19;100.00
62708;BME280;48769;51.624;5.886;2024-01-06T00:59:31;100141.28;;;7.20;100.00
62708;BME280;48769;51.624;5.886;2024-01-06T01:01:56;100139.78;;;7.14;100.00
62708;BME280;48769;51.624;5.886;2024-01-06T01:04:22;100144.28;;;7.12;100.00
62708;BME280;48769;51.624;5.886;2024-01-06T01:06:47;100147.22;;;7.06;100.00
62708;BME280;48769;51.624;5.886;2024-01-06T01:09:12;100151.53;;;7.07;100.00
62708;BME280;48769;51.624;5.886;2024-01-06T01:11:39;100154.38;;;7.02;100.00
62708;BME280;48769;51.624;5.886;2024-01-06T01:14:04;100158.78;;;7.02;100.00
62708;BME280;48769;51.624;5.886;2024-01-06T01:16:30;100159.69;;;7.01;100.00
62708;BME280;48769;51.624;5.886;2024-01-06T01:18:57;100163.25;;;7.00;100.00
62708;BME280;48769;51.624;5.886;2024-01-06T01:21:22;100164.34;;;6.96;100.00
62708;BME280;48769;51.624;5.886;2024-01-06T01:23:48;100170.84;;;6.87;100.00
62708;BME280;48769;51.624;5.886;2024-01-06T01:26:13;100170.16;;;6.84;100.00
62708;BME280;48769;51.624;5.886;2024-01-06T01:28:38;100177.25;;;6.82;100.00
62708;BME280;48769;51.624;5.886;2024-01-06T01:31:04;100175.69;;;6.77;100.00
62708;BME280;48769;51.624;5.886;2024-01-06T01:33:29;100182.72;;;6.77;100.00
62708;BME280;48769;51.624;5.886;2024-01-06T01:35:54;100187.97;;;6.77;100.00
62708;BME280;48769;51.624;5.886;2024-01-06T01:38:23;100193.22;;;6.77;100.00
62708;BME280;48769;51.624;5.886;2024-01-06T01:40:51;100196.03;;;6.72;100.00
62708;BME280;48769;51.624;5.886;2024-01-06T01:43:19;100190.94;;;6.69;100.00
62708;BME280;48769;51.624;5.886;2024-01-06T01:45:48;100196.13;;;6.71;100.00
62708;BME280;48769;51.624;5.886;2024-01-06T01:48:15;100193.41;;;6.72;100.00
62708;BME280;48769;51.624;5.886;2024-01-06T01:50:40;100210.09;;;6.71;100.00
62708;BME280;48769;51.624;5.886;2024-01-06T01:53:05;100204.03;;;6.69;100.00
62708;BME280;48769;51.624;5.886;2024-01-06T01:55:31;100209.38;;;6.68;100.00
62708;BME280;48769;51.624;5.886;2024-01-06T01:57:56;100205.22;;;6.64;100.00
62708;BME280;48769;51.624;5.886;2024-01-06T02:00:22;100201.72;;;6.63;100.00
62708;BME280;48769;51.624;5.886;2024-01-06T02:02:48;100213.94;;;6.64;100.00
62708;BME280;48769;51.624;5.886;2024-01-06T02:05:13;100207.81;;;6.64;100.00
62708;BME280;48769;51.624;5.886;2024-01-06T02:07:39;100213.41;;;6.56;100.00
62708;BME280;48769;51.624;5.886;2024-01-06T02:10:05;100213.41;;;6.56;100.00
62708;BME280;48769;51.624;5.886;2024-01-06T02:12:30;100218.03;;;6.51;100.00
62708;BME280;48769;51.624;5.886;2024-01-06T02:14:55;100224.03;;;6.53;100.00
62708;BME280;48769;51.624;5.886;2024-01-06T02:17:21;100218.78;;;6.53;100.00
62708;BME280;48769;51.624;5.886;2024-01-06T02:19:46;100234.75;;;6.48;100.00
62708;BME280;48769;51.624;5.886;2024-01-06T02:22:12;100238.47;;;6.43;100.00
62708;BME280;48769;51.624;5.886;2024-01-06T02:24:37;100236.78;;;6.42;100.00
62708;BME280;48769;51.624;5.886;2024-01-06T02:27:02;100250.84;;;6.41;100.00
62708;BME280;48769;51.624;5.886;2024-01-06T02:29:28;100251.69;;;6.41;100.00
62708;BME280;48769;51.624;5.886;2024-01-06T02:31:53;100256.00;;;6.42;100.00
62708;BME280;48769;51.624;5.886;2024-01-06T02:34:18;100259.47;;;6.43;100.00
62708;BME280;48769;51.624;5.886;2024-01-06T02:36:43;100258.84;;;6.38;100.00
62708;BME280;48769;51.624;5.886;2024-01-06T02:39:09;100264.13;;;6.36;100.00
62708;BME280;48769;51.624;5.886;2024-01-06T02:41:34;100270.09;;;6.40;100.00
62708;BME280;48769;51.624;5.886;2024-01-06T02:43:59;100277.06;;;6.41;100.00
62708;BME280;48769;51.624;5.886;2024-01-06T02:46:27;100282.31;;;6.41;100.00
62708;BME280;48769;51.624;5.886;2024-01-06T02:48:53;100285.78;;;6.41;100.00
62708;BME280;48769;51.624;5.886;2024-01-06T02:51:18;100295.34;;;6.42;100.00
62708;BME280;48769;51.624;5.886;2024-01-06T02:53:43;100298.06;;;6.41;100.00
62708;BME280;48769;51.624;5.886;2024-01-06T02:56:12;100298.78;;;6.44;100.00
62708;BME280;48769;51.624;5.886;2024-01-06T02:58:38;100304.94;;;6.43;100.00
62708;BME280;48769;51.624;5.886;2024-01-06T03:01:03;100305.72;;;6.45;100.00
62708;BME280;48769;51.624;5.886;2024-01-06T03:03:28;100299.63;;;6.45;100.00
62708;BME280;48769;51.624;5.886;2024-01-06T03:05:54;100308.56;;;6.41;100.00
62708;BME280;48769;51.624;5.886;2024-01-06T03:08:19;100305.25;;;6.36;100.00
62708;BME280;48769;51.624;5.886;2024-01-06T03:10:44;100310.50;;;6.36;100.00
62708;BME280;48769;51.624;5.886;2024-01-06T03:13:10;100320.38;;;6.30;100.00
62708;BME280;48769;51.624;5.886;2024-01-06T03:15:35;100302.91;;;6.29;100.00
62708;BME280;48769;51.624;5.886;2024-01-06T03:18:00;100323.00;;;6.30;100.00
62708;BME280;48769;51.624;5.886;2024-01-06T03:20:25;100313.53;;;6.26;100.00
62708;BME280;48769;51.624;5.886;2024-01-06T03:22:51;100319.81;;;6.22;100.00
62708;BME280;48769;51.624;5.886;2024-01-06T03:25:16;100325.06;;;6.22;100.00
62708;BME280;48769;51.624;5.886;2024-01-06T03:27:41;100321.50;;;6.23;100.00
62708;BME280;48769;51.624;5.886;2024-01-06T03:30:07;100321.66;;;6.20;100.00
62708;BME280;48769;51.624;5.886;2024-01-06T03:32:32;100321.66;;;6.20;100.00
62708;BME280;48769;51.624;5.886;2024-01-06T03:34:58;100324.38;;;6.17;100.00
62708;BME280;48769;51.624;5.886;2024-01-06T03:37:23;100334.88;;;6.17;100.00
62708;BME280;48769;51.624;5.886;2024-01-06T03:39:49;100331.38;;;6.18;100.00
62708;BME280;48769;51.624;5.886;2024-01-06T03:42:14;100330.44;;;6.19;100.00
62708;BME280;48769;51.624;5.886;2024-01-06T03:44:40;100330.44;;;6.19;100.00
62708;BME280;48769;51.624;5.886;2024-01-06T03:47:05;100335.94;;;6.13;100.00
62708;BME280;48769;51.624;5.886;2024-01-06T03:49:31;100350.22;;;6.06;100.00
62708;BME280;48769;51.624;5.886;2024-01-06T03:51:56;100352.03;;;6.04;100.00
62708;BME280;48769;51.624;5.886;2024-01-06T03:54:21;100359.00;;;6.05;100.00
62708;BME280;48769;51.624;5.886;2024-01-06T03:56:47;100352.03;;;6.04;100.00
62708;BME280;48769;51.624;5.886;2024-01-06T03:59:13;100359.13;;;6.02;100.00
62708;BME280;48769;51.624;5.886;2024-01-06T04:01:38;100360.94;;;6.00;100.00
62708;BME280;48769;51.624;5.886;2024-01-06T04:04:03;100367.91;;;6.01;100.00
62708;BME280;48769;51.624;5.886;2024-01-06T04:06:29;100368.78;;;6.01;100.00
62708;BME280;48769;51.624;5.886;2024-01-06T04:08:54;100374.91;;;6.00;100.00
62708;BME280;48769;51.624;5.886;2024-01-06T04:11:21;100378.50;;;5.98;100.00
62708;BME280;48769;51.624;5.886;2024-01-06T04:13:46;100384.63;;;5.98;100.00
62708;BME280;48769;51.624;5.886;2024-01-06T04:16:11;100374.97;;;5.99;100.00
62708;BME280;48769;51.624;5.886;2024-01-06T04:18:37;100384.94;;;5.89;100.00
62708;BME280;48769;51.624;5.886;2024-01-06T04:21:02;100378.84;;;5.89;100.00
62708;BME280;48769;51.624;5.886;2024-01-06T04:23:28;100387.50;;;5.91;100.00
62708;BME280;48769;51.624;5.886;2024-01-06T04:25:56;100378.84;;;5.89;100.00
62708;BME280;48769;51.624;5.886;2024-01-06T04:28:22;100389.28;;;5.90;100.00
62708;BME280;48769;51.624;5.886;2024-01-06T04:30:47;100389.34;;;5.89;100.00
62708;BME280;48769;51.624;5.886;2024-01-06T04:33:13;100395.59;;;5.84;100.00
62708;BME280;48769;51.624;5.886;2024-01-06T04:35:38;100401.75;;;5.83;100.00
62708;BME280;48769;51.624;5.886;2024-01-06T04:38:03;100400.06;;;5.82;100.00
62708;BME280;48769;51.624;5.886;2024-01-06T04:40:28;100399.22;;;5.82;100.00
62708;BME280;48769;51.624;5.886;2024-01-06T04:42:54;100405.31;;;5.82;100.00
62708;BME280;48769;51.624;5.886;2024-01-06T04:45:19;100401.75;;;5.83;100.00
62708;BME280;48769;51.624;5.886;2024-01-06T04:47:45;100410.66;;;5.79;100.00
62708;BME280;48769;51.624;5.886;2024-01-06T04:50:10;100412.47;;;5.77;100.00
62708;BME280;48769;51.624;5.886;2024-01-06T04:52:35;100412.47;;;5.77;100.00
62708;BME280;48769;51.624;5.886;2024-01-06T04:55:01;100415.91;;;5.79;100.00
62708;BME280;48769;51.624;5.886;2024-01-06T04:57:27;100415.84;;;5.81;100.00
62708;BME280;48769;51.624;5.886;2024-01-06T04:59:52;100417.56;;;5.82;100.00
62708;BME280;48769;51.624;5.886;2024-01-06T05:02:18;100418.41;;;5.82;100.00
62708;BME280;48769;51.624;5.886;2024-01-06T05:04:46;100424.56;;;5.81;100.00
62708;BME280;48769;51.624;5.886;2024-01-06T05:07:11;100428.22;;;5.77;100.00
62708;BME280;48769;51.624;5.886;2024-01-06T05:09:37;100422.94;;;5.79;100.00
62708;BME280;48769;51.624;5.886;2024-01-06T05:12:02;100425.59;;;5.77;100.00
62708;BME280;48769;51.624;5.886;2024-01-06T05:14:28;100444.16;;;5.71;100.00
62708;BME280;48769;51.624;5.886;2024-01-06T05:16:53;100442.34;;;5.73;100.00
62708;BME280;48769;51.624;5.886;2024-01-06T05:19:18;100432.59;;;5.77;100.00
62708;BME280;48769;51.624;5.886;2024-01-06T05:21:45;100437.84;;;5.77;100.00
62708;BME280;48769;51.624;5.886;2024-01-06T05:24:10;100443.94;;;5.77;100.00
62708;BME280;48769;51.624;5.886;2024-01-06T05:26:36;100438.78;;;5.76;100.00
62708;BME280;48769;51.624;5.886;2024-01-06T05:29:01;100441.38;;;5.76;100.00
62708;BME280;48769;51.624;5.886;2024-01-06T05:31:26;100443.94;;;5.77;100.00
62708;BME280;48769;51.624;5.886;2024-01-06T05:33:52;100447.38;;;5.79;100.00
62708;BME280;48769;51.624;5.886;2024-01-06T05:36:20;100452.59;;;5.79;100.00
62708;BME280;48769;51.624;5.886;2024-01-06T05:38:45;100454.31;;;5.80;100.00
62708;BME280;48769;51.624;5.886;2024-01-06T05:41:11;100455.97;;;5.83;100.00
62708;BME280;48769;51.624;5.886;2024-01-06T05:43:36;100450.72;;;5.83;100.00
62708;BME280;48769;51.624;5.886;2024-01-06T05:46:01;100455.16;;;5.81;100.00
62708;BME280;48769;51.624;5.886;2024-01-06T05:48:27;100465.59;;;5.82;100.00
62708;BME280;48769;51.624;5.886;2024-01-06T05:50:52;100457.84;;;5.79;100.00
62708;BME280;48769;51.624;5.886;2024-01-06T05:53:17;100469.22;;;5.78;100.00
62708;BME280;48769;51.624;5.886;2024-01-06T05:55:44;100474.63;;;5.75;100.00
62708;BME280;48769;51.624;5.886;2024-01-06T05:58:09;100478.25;;;5.71;100.00
62708;BME280;48769;51.624;5.886;2024-01-06T06:00:34;100474.66;;;5.74;100.00
62708;BME280;48769;51.624;5.886;2024-01-06T06:03:00;100479.78;;;5.77;100.00
62708;BME280;48769;51.624;5.886;2024-01-06T06:05:25;100474.53;;;5.77;100.00
62708;BME280;48769;51.624;5.886;2024-01-06T06:07:51;100493.69;;;5.79;100.00
62708;BME280;48769;51.624;5.886;2024-01-06T06:10:16;100492.97;;;5.75;100.00
62708;BME280;48769;51.624;5.886;2024-01-06T06:12:44;100496.59;;;5.71;100.00
62708;BME280;48769;51.624;5.886;2024-01-06T06:15:09;100501.78;;;5.73;100.00
62708;BME280;48769;51.624;5.886;2024-01-06T06:17:36;100506.94;;;5.74;100.00
62708;BME280;48769;51.624;5.886;2024-01-06T06:20:01;100501.72;;;5.74;100.00
62708;BME280;48769;51.624;5.886;2024-01-06T06:22:27;100507.81;;;5.75;100.00
62708;BME280;48769;51.624;5.886;2024-01-06T06:24:59;100515.75;;;5.73;100.00
62708;BME280;48769;51.624;5.886;2024-01-06T06:27:34;100515.75;;;5.73;100.00
62708;BME280;48769;51.624;5.886;2024-01-06T06:30:00;100514.94;;;5.71;100.00
62708;BME280;48769;51.624;5.886;2024-01-06T06:32:25;100527.19;;;5.71;100.00
62708;BME280;48769;51.624;5.886;2024-01-06T06:34:51;100529.13;;;5.66;100.00
62708;BME280;48769;51.624;5.886;2024-01-06T06:37:16;100535.34;;;5.63;100.00
62708;BME280;48769;51.624;5.886;2024-01-06T06:39:41;100530.97;;;5.62;100.00
62708;BME280;48769;51.624;5.886;2024-01-06T06:42:09;100546.03;;;5.57;100.00
62708;BME280;48769;51.624;5.886;2024-01-06T06:44:35;100549.59;;;5.54;100.00
62708;BME280;48769;51.624;5.886;2024-01-06T06:47:00;100555.03;;;5.50;100.00
62708;BME280;48769;51.624;5.886;2024-01-06T06:49:26;100560.47;;;5.44;100.00
62708;BME280;48769;51.624;5.886;2024-01-06T06:51:51;100565.72;;;5.44;100.00
62708;BME280;48769;51.624;5.886;2024-01-06T06:54:16;100567.63;;;5.38;100.00
62708;BME280;48769;51.624;5.886;2024-01-06T06:56:45;100575.47;;;5.38;100.00
62708;BME280;48769;51.624;5.886;2024-01-06T06:59:10;100578.09;;;5.38;100.00
62708;BME280;48769;51.624;5.886;2024-01-06T07:01:35;100579.84;;;5.39;100.00
62708;BME280;48769;51.624;5.886;2024-01-06T07:04:02;100582.31;;;5.43;100.00
62708;BME280;48769;51.624;5.886;2024-01-06T07:06:27;100576.41;;;5.37;100.00
62708;BME280;48769;51.624;5.886;2024-01-06T07:08:54;100579.94;;;5.36;100.00
62708;BME280;48769;51.624;5.886;2024-01-06T07:11:19;100595.66;;;5.36;100.00
62708;BME280;48769;51.624;5.886;2024-01-06T07:13:44;100590.63;;;5.30;100.00
62708;BME280;48769;51.624;5.886;2024-01-06T07:16:10;100599.59;;;5.23;100.00
62708;BME280;48769;51.624;5.886;2024-01-06T07:18:37;100604.94;;;5.20;100.00
62708;BME280;48769;51.624;5.886;2024-01-06T07:21:04;100613.56;;;5.22;100.00
62708;BME280;48769;51.624;5.886;2024-01-06T07:23:31;100612.63;;;5.25;100.00
62708;BME280;48769;51.624;5.886;2024-01-06T07:25:56;100622.25;;;5.24;100.00
62708;BME280;48769;51.624;5.886;2024-01-06T07:28:22;100618.88;;;5.21;100.00
62708;BME280;48769;51.624;5.886;2024-01-06T07:30:47;100620.53;;;5.23;100.00
62708;BME280;48769;51.624;5.886;2024-01-06T07:33:12;100630.19;;;5.21;100.00
62708;BME280;48769;51.624;5.886;2024-01-06T07:35:38;100627.59;;;5.21;100.00
62708;BME280;48769;51.624;5.886;2024-01-06T07:38:07;100638.06;;;5.21;100.00
62708;BME280;48769;51.624;5.886;2024-01-06T07:40:33;100638.97;;;5.20;100.00
62708;BME280;48769;51.624;5.886;2024-01-06T07:42:58;100636.47;;;5.17;100.00
62708;BME280;48769;51.624;5.886;2024-01-06T07:45:23;100629.47;;;5.16;100.00
62708;BME280;48769;51.624;5.886;2024-01-06T07:47:48;100635.69;;;5.13;100.00
62708;BME280;48769;51.624;5.886;2024-01-06T07:50:14;100641.88;;;5.11;100.00
62708;BME280;48769;51.624;5.886;2024-01-06T07:52:39;100641.22;;;5.04;100.00
62708;BME280;48769;51.624;5.886;2024-01-06T07:55:04;100650.13;;;4.99;100.00
62708;BME280;48769;51.624;5.886;2024-01-06T07:57:30;100651.06;;;4.96;100.00
62708;BME280;48769;51.624;5.886;2024-01-06T07:59:55;100657.16;;;4.97;100.00
62708;BME280;48769;51.624;5.886;2024-01-06T08:02:20;100658.00;;;4.97;100.00
62708;BME280;48769;51.624;5.886;2024-01-06T08:04:46;100665.84;;;4.97;100.00
62708;BME280;48769;51.624;5.886;2024-01-06T08:07:11;100670.34;;;4.93;100.00
62708;BME280;48769;51.624;5.886;2024-01-06T08:09:38;100682.53;;;4.95;100.00
62708;BME280;48769;51.624;5.886;2024-01-06T08:12:04;100680.72;;;4.97;100.00
62708;BME280;48769;51.624;5.886;2024-01-06T08:14:29;100691.09;;;5.00;100.00
62708;BME280;48769;51.624;5.886;2024-01-06T08:16:55;100695.47;;;4.99;100.00
62708;BME280;48769;51.624;5.886;2024-01-06T08:19:20;100698.16;;;4.98;100.00
62708;BME280;48769;51.624;5.886;2024-01-06T08:21:45;100697.28;;;4.97;100.00
62708;BME280;48769;51.624;5.886;2024-01-06T08:24:12;100701.13;;;4.85;100.00
62708;BME280;48769;51.624;5.886;2024-01-06T08:26:37;100711.72;;;4.81;100.00
62708;BME280;48769;51.624;5.886;2024-01-06T08:29:03;100707.41;;;4.80;100.00
62708;BME280;48769;51.624;5.886;2024-01-06T08:31:28;100716.44;;;4.69;100.00
62708;BME280;48769;51.624;5.886;2024-01-06T08:33:53;100720.81;;;4.69;100.00
62708;BME280;48769;51.624;5.886;2024-01-06T08:36:19;100726.84;;;4.71;100.00
62708;BME280;48769;51.624;5.886;2024-01-06T08:38:44;100724.97;;;4.76;100.00
62708;BME280;48769;51.624;5.886;2024-01-06T08:41:09;100729.25;;;4.79;100.00
62708;BME280;48769;51.624;5.886;2024-01-06T08:43:34;100746.06;;;4.70;100.00
62708;BME280;48769;51.624;5.886;2024-01-06T08:46:00;100744.53;;;4.63;100.00
62708;BME280;48769;51.624;5.886;2024-01-06T08:48:25;100746.16;;;4.67;100.00
62708;BME280;48769;51.624;5.886;2024-01-06T08:50:51;100747.97;;;4.65;100.00
62708;BME280;48769;51.624;5.886;2024-01-06T08:53:16;100755.63;;;4.71;100.00
62708;BME280;48769;51.624;5.886;2024-01-06T08:55:42;100756.38;;;4.76;100.00
62708;BME280;48769;51.624;5.886;2024-01-06T08:58:07;100758.97;;;4.78;100.00
62708;BME280;48769;51.624;5.886;2024-01-06T09:00:32;100770.19;;;4.81;100.00
62708;BME280;48769;51.624;5.886;2024-01-06T09:02:57;100772.91;;;4.78;100.00
62708;BME280;48769;51.624;5.886;2024-01-06T09:05:23;100771.13;;;4.79;100.00
62708;BME280;48769;51.624;5.886;2024-01-06T09:07:48;100773.78;;;4.77;100.00
62708;BME280;48769;51.624;5.886;2024-01-06T09:10:16;100780.78;;;4.77;100.00
62708;BME280;48769;51.624;5.886;2024-01-06T09:12:42;100784.25;;;4.77;100.00
62708;BME280;48769;51.624;5.886;2024-01-06T09:15:08;100783.38;;;4.77;100.00
62708;BME280;48769;51.624;5.886;2024-01-06T09:17:34;100780.06;;;4.72;100.00
62708;BME280;48769;51.624;5.886;2024-01-06T09:19:59;100795.69;;;4.75;100.00
62708;BME280;48769;51.624;5.886;2024-01-06T09:22:25;100798.22;;;4.78;100.00
62708;BME280;48769;51.624;5.886;2024-01-06T09:24:50;100795.63;;;4.76;100.00
62708;BME280;48769;51.624;5.886;2024-01-06T09:27:16;100803.81;;;4.64;100.00
62708;BME280;48769;51.624;5.886;2024-01-06T09:29:41;100815.03;;;4.69;100.00
62708;BME280;48769;51.624;5.886;2024-01-06T09:32:06;100817.72;;;4.66;100.00
62708;BME280;48769;51.624;5.886;2024-01-06T09:34:32;100822.19;;;4.62;100.00
62708;BME280;48769;51.624;5.886;2024-01-06T09:36:57;100833.72;;;4.55;100.00
62708;BME280;48769;51.624;5.886;2024-01-06T09:39:22;100833.81;;;4.51;100.00
62708;BME280;48769;51.624;5.886;2024-01-06T09:41:48;100833.59;;;4.60;100.00
62708;BME280;48769;51.624;5.886;2024-01-06T09:44:13;100835.94;;;4.69;100.00
62708;BME280;48769;51.624;5.886;2024-01-06T09:46:38;100847.97;;;4.76;100.00
62708;BME280;48769;51.624;5.886;2024-01-06T09:49:05;100844.28;;;4.83;100.00
62708;BME280;48769;51.624;5.886;2024-01-06T09:51:31;100846.03;;;4.83;100.00
62708;BME280;48769;51.624;5.886;2024-01-06T09:53:59;100852.13;;;4.83;100.00
62708;BME280;48769;51.624;5.886;2024-01-06T09:56:26;100846.97;;;4.80;100.00
62708;BME280;48769;51.624;5.886;2024-01-06T09:58:51;100854.66;;;4.86;100.00
62708;BME280;48769;51.624;5.886;2024-01-06T10:01:18;100854.53;;;4.91;100.00
62708;BME280;48769;51.624;5.886;2024-01-06T10:03:43;100857.09;;;4.92;100.00
62708;BME280;48769;51.624;5.886;2024-01-06T10:06:11;100862.25;;;4.96;100.00
62708;BME280;48769;51.624;5.886;2024-01-06T10:08:36;100860.56;;;4.95;100.00
62708;BME280;48769;51.624;5.886;2024-01-06T10:11:02;100869.38;;;4.90;100.00
62708;BME280;48769;51.624;5.886;2024-01-06T10:13:28;100868.66;;;4.85;100.00
62708;BME280;48769;51.624;5.886;2024-01-06T10:15:54;100866.13;;;4.82;100.00
62708;BME280;48769;51.624;5.886;2024-01-06T10:18:20;100868.72;;;4.82;100.00
62708;BME280;48769;51.624;5.886;2024-01-06T10:21:03;100878.34;;;4.82;100.00
62708;BME280;48769;51.624;5.886;2024-01-06T10:23:33;100880.91;;;4.83;100.00
62708;BME280;48769;51.624;5.886;2024-01-06T10:25:59;100877.50;;;4.81;100.00
62708;BME280;48769;51.624;5.886;2024-01-06T10:28:25;100874.97;;;4.78;100.00
62708;BME280;48769;51.624;5.886;2024-01-06T10:30:54;100883.00;;;4.71;100.00
62708;BME280;48769;51.624;5.886;2024-01-06T10:33:20;100880.63;;;4.61;100.00
62708;BME280;48769;51.624;5.886;2024-01-06T10:35:46;100883.97;;;4.68;100.00
62708;BME280;48769;51.624;5.886;2024-01-06T10:38:12;100884.66;;;4.75;100.00
62708;BME280;48769;51.624;5.886;2024-01-06T10:40:37;100893.38;;;4.74;100.00
62708;BME280;48769;51.624;5.886;2024-01-06T10:43:03;100887.28;;;4.73;100.00
62708;BME280;48769;51.624;5.886;2024-01-06T10:45:29;100889.91;;;4.73;100.00
62708;BME280;48769;51.624;5.886;2024-01-06T10:47:57;100888.44;;;4.63;100.00
62708;BME280;48769;51.624;5.886;2024-01-06T10:50:25;100892.78;;;4.64;100.00
62708;BME280;48769;51.624;5.886;2024-01-06T10:52:53;100896.38;;;4.60;100.00
62708;BME280;48769;51.624;5.886;2024-01-06T10:55:18;100897.19;;;4.62;100.00
62708;BME280;48769;51.624;5.886;2024-01-06T10:57:46;100893.63;;;4.64;100.00
62708;BME280;48769;51.624;5.886;2024-01-06T11:00:12;100903.16;;;4.67;100.00
62708;BME280;48769;51.624;5.886;2024-01-06T11:02:38;100903.06;;;4.70;100.00
62708;BME280;48769;51.624;5.886;2024-01-06T11:05:04;100901.28;;;4.72;100.00
62708;BME280;48769;51.624;5.886;2024-01-06T11:07:33;100905.59;;;4.75;100.00
62708;BME280;48769;51.624;5.886;2024-01-06T11:10:04;100906.38;;;4.78;100.00
62708;BME280;48769;51.624;5.886;2024-01-06T11:12:31;100906.38;;;4.78;100.00
62708;BME280;48769;51.624;5.886;2024-01-06T11:14:56;100909.00;;;4.77;100.00
62708;BME280;48769;51.624;5.886;2024-01-06T11:17:50;100910.03;;;4.71;100.00
62708;BME280;48769;51.624;5.886;2024-01-06T11:20:22;100918.22;;;4.59;100.00
62708;BME280;48769;51.624;5.886;2024-01-06T11:22:48;100918.94;;;4.64;100.00
62708;BME280;48769;51.624;5.886;2024-01-06T11:25:18;100924.09;;;4.67;100.00
62708;BME280;48769;51.624;5.886;2024-01-06T11:27:46;100927.47;;;4.72;100.00
62708;BME280;48769;51.624;5.886;2024-01-06T11:30:22;100922.91;;;4.79;100.00
62708;BME280;48769;51.624;5.886;2024-01-06T11:32:48;100920.41;;;4.74;100.00
62708;BME280;48769;51.624;5.886;2024-01-06T11:35:15;100925.84;;;4.66;100.00
62708;BME280;48769;51.624;5.886;2024-01-06T11:43:01;100929.41;;;4.64;100.00
62708;BME280;48769;51.624;5.886;2024-01-06T11:45:28;100927.63;;;4.66;100.00
62708;BME280;48769;51.624;5.886;2024-01-06T11:47:58;100922.31;;;4.69;100.00
62708;BME280;48769;51.624;5.886;2024-01-06T11:50:25;100924.00;;;4.70;100.00
62708;BME280;48769;51.624;5.886;2024-01-06T11:52:51;100931.06;;;4.68;100.00
62708;BME280;48769;51.624;5.886;2024-01-06T11:55:20;100930.25;;;4.64;100.00
62708;BME280;48769;51.624;5.886;2024-01-06T11:57:45;100929.47;;;4.61;100.00
62708;BME280;48769;51.624;5.886;2024-01-06T12:00:12;100934.13;;;4.50;100.00
62708;BME280;48769;51.624;5.886;2024-01-06T12:02:40;100933.22;;;4.51;100.00
62708;BME280;48769;51.624;5.886;2024-01-06T12:05:12;100931.53;;;4.50;100.00
62708;BME280;48769;51.624;5.886;2024-01-06T12:07:40;100929.88;;;4.45;100.00
62708;BME280;48769;51.624;5.886;2024-01-06T12:10:05;100925.47;;;4.48;100.00
62708;BME280;48769;51.624;5.886;2024-01-06T12:12:32;100929.81;;;4.49;100.00
62708;BME280;48769;51.624;5.886;2024-01-06T12:14:58;100931.53;;;4.50;100.00
62708;BME280;48769;51.624;5.886;2024-01-06T12:17:29;100932.31;;;4.52;100.00
62708;BME280;48769;51.624;5.886;2024-01-06T12:19:54;100936.81;;;4.47;100.00
62708;BME280;48769;51.624;5.886;2024-01-06T12:22:20;100929.91;;;4.44;100.00
62708;BME280;48769;51.624;5.886;2024-01-06T12:24:49;100925.44;;;4.49;100.00
62708;BME280;48769;51.624;5.886;2024-01-06T12:27:14;100930.63;;;4.51;100.00
62708;BME280;48769;51.624;5.886;2024-01-06T12:29:41;100924.41;;;4.55;100.00
62708;BME280;48769;51.624;5.886;2024-01-06T12:32:07;100930.53;;;4.54;100.00
62708;BME280;48769;51.624;5.886;2024-01-06T12:34:34;100935.75;;;4.55;100.00
62708;BME280;48769;51.624;5.886;2024-01-06T12:37:00;100927.78;;;4.60;100.00
62708;BME280;48769;51.624;5.886;2024-01-06T12:39:28;100933.00;;;4.60;100.00
62708;BME280;48769;51.624;5.886;2024-01-06T12:41:56;100928.63;;;4.60;100.00
62708;BME280;48769;51.624;5.886;2024-01-06T12:44:22;100932.00;;;4.64;100.00
62708;BME280;48769;51.624;5.886;2024-01-06T12:46:48;100936.44;;;4.62;100.00
62708;BME280;48769;51.624;5.886;2024-01-06T12:49:14;100932.84;;;4.66;100.00